createdAt,value
2016-10-07T00:00:11.267Z,-39.99
2016-10-07T00:01:11.287Z,-39.99
2016-10-07T00:02:11.311Z,-39.99
2016-10-07T00:03:11.316Z,-39.99
2016-10-07T00:04:11.343Z,-39.99
2016-10-07T00:05:11.354Z,-39.99
2016-10-07T00:06:11.366Z,-39.99
2016-10-07T00:07:11.392Z,-39.99
2016-10-07T00:08:11.407Z,-39.99
2016-10-07T00:09:11.425Z,-39.99
2016-10-07T00:10:11.441Z,-39.99
2016-10-07T00:11:11.458Z,-39.99
2016-10-07T00:12:11.472Z,-39.99
2016-10-07T00:13:11.490Z,-39.99
2016-10-07T00:14:11.499Z,-39.99
2016-10-07T00:15:11.532Z,-39.99
2016-10-07T00:16:11.540Z,-39.99
2016-10-07T00:17:11.561Z,-39.99
2016-10-07T00:18:11.565Z,-39.99
2016-10-07T00:19:11.587Z,-39.99
2016-10-07T00:20:11.624Z,-39.99
2016-10-07T00:21:11.657Z,-39.99
2016-10-07T00:22:11.668Z,-39.99
2016-10-07T00:23:11.678Z,-39.99
2016-10-07T00:24:11.706Z,-39.99
2016-10-07T00:25:11.701Z,-39.99
2016-10-07T00:26:11.717Z,-39.99
2016-10-07T00:27:11.751Z,-39.99
2016-10-07T00:28:11.763Z,-39.99
2016-10-07T00:29:12.101Z,-39.99
2016-10-07T00:30:11.792Z,-39.99
2016-10-07T00:31:11.798Z,-39.99
2016-10-07T00:32:11.823Z,-39.99
2016-10-07T00:33:11.839Z,-39.99
2016-10-07T00:34:11.869Z,-39.99
2016-10-07T00:35:11.874Z,-39.99
2016-10-07T00:36:11.895Z,-39.99
2016-10-07T00:37:11.907Z,-39.99
2016-10-07T00:38:11.928Z,-39.99
2016-10-07T00:39:11.933Z,-39.99
2016-10-07T00:40:11.955Z,-39.99
2016-10-07T00:41:11.971Z,-39.99
2016-10-07T00:42:11.989Z,-39.99
2016-10-07T00:43:12.005Z,-39.99
2016-10-07T00:44:12.016Z,-39.99
2016-10-07T00:45:12.042Z,-39.99
2016-10-07T00:46:12.066Z,-39.99
2016-10-07T00:47:12.064Z,-39.99
2016-10-07T00:48:12.105Z,-39.99
2016-10-07T00:49:12.099Z,-39.99
2016-10-07T00:50:12.127Z,-39.99
2016-10-07T00:51:12.133Z,-39.99
2016-10-07T00:52:12.149Z,-39.99
2016-10-07T00:53:12.172Z,-39.99
2016-10-07T00:54:12.191Z,-39.99
2016-10-07T00:55:12.222Z,-39.99
2016-10-07T00:56:12.208Z,-39.99
2016-10-07T00:57:12.232Z,-39.99
2016-10-07T00:58:12.256Z,-39.99
2016-10-07T00:59:12.273Z,-39.99
2016-10-07T01:00:12.289Z,-39.99
2016-10-07T01:01:12.299Z,-39.99
2016-10-07T01:02:12.329Z,-39.99
2016-10-07T01:03:12.326Z,-39.99
2016-10-07T01:04:12.350Z,-39.99
2016-10-07T01:05:12.362Z,-39.99
2016-10-07T01:06:12.372Z,-39.99
2016-10-07T01:07:12.392Z,-39.99
2016-10-07T01:08:12.426Z,-39.99
2016-10-07T01:09:12.421Z,-39.99
2016-10-07T01:10:12.438Z,-39.99
2016-10-07T01:11:12.474Z,-39.99
2016-10-07T01:12:12.484Z,-39.99
2016-10-07T01:13:12.496Z,-39.99
2016-10-07T01:14:12.510Z,-39.99
2016-10-07T01:15:12.532Z,-39.99
2016-10-07T01:16:12.536Z,-39.99
2016-10-07T01:17:12.566Z,-39.99
2016-10-07T01:18:12.578Z,-39.99
2016-10-07T01:19:12.609Z,-39.99
2016-10-07T01:20:12.592Z,-39.99
2016-10-07T01:21:12.628Z,-39.99
2016-10-07T01:22:12.645Z,-39.99
2016-10-07T01:23:12.659Z,-39.99
2016-10-07T01:24:12.674Z,-39.99
2016-10-07T01:25:12.690Z,-39.99
2016-10-07T01:26:12.706Z,-39.99
2016-10-07T01:27:12.728Z,-39.99
2016-10-07T01:28:12.740Z,-39.99
2016-10-07T01:29:12.754Z,-39.99
2016-10-07T01:30:12.772Z,-39.99
2016-10-07T01:31:12.792Z,-39.99
2016-10-07T01:32:12.798Z,-39.99
2016-10-07T01:33:12.825Z,-39.99
2016-10-07T01:34:12.851Z,-39.99
2016-10-07T01:35:12.857Z,-39.99
2016-10-07T01:36:12.880Z,-39.99
2016-10-07T01:37:12.893Z,-39.99
2016-10-07T01:38:12.911Z,-39.99
2016-10-07T01:39:12.928Z,-39.99
2016-10-07T01:40:12.936Z,-39.99
2016-10-07T01:41:12.971Z,-39.99
2016-10-07T01:42:12.960Z,-39.99
2016-10-07T01:43:12.984Z,-39.99
2016-10-07T01:44:13.010Z,-39.99
2016-10-07T01:45:13.022Z,-39.99
2016-10-07T01:46:13.034Z,-39.99
2016-10-07T01:47:13.044Z,-39.99
2016-10-07T01:48:13.072Z,-39.99
2016-10-07T01:49:13.078Z,-39.99
2016-10-07T01:50:13.115Z,-39.99
2016-10-07T01:51:13.123Z,-39.99
2016-10-07T01:52:13.149Z,-39.99
2016-10-07T01:53:13.474Z,-39.99
2016-10-07T01:54:13.170Z,-39.99
2016-10-07T01:55:13.186Z,-39.99
2016-10-07T01:56:13.197Z,-39.99
2016-10-07T01:57:13.217Z,-39.99
2016-10-07T01:58:13.244Z,-39.99
2016-10-07T01:59:13.267Z,-39.99
2016-10-07T02:00:13.260Z,-39.99
2016-10-07T02:01:13.264Z,-39.99
2016-10-07T02:02:13.301Z,-39.99
2016-10-07T02:03:13.330Z,-39.99
2016-10-07T02:04:13.326Z,-39.99
2016-10-07T02:05:13.345Z,-39.99
2016-10-07T02:06:13.370Z,-39.99
2016-10-07T02:07:13.388Z,-39.99
2016-10-07T02:08:13.399Z,-39.99
2016-10-07T02:09:13.410Z,-39.99
2016-10-07T02:10:13.446Z,-39.99
2016-10-07T02:11:13.452Z,-39.99
2016-10-07T02:12:13.462Z,-39.99
2016-10-07T02:13:13.481Z,-39.99
2016-10-07T02:14:13.487Z,-39.99
2016-10-07T02:15:13.511Z,-39.99
2016-10-07T02:16:13.531Z,-39.99
2016-10-07T02:17:13.545Z,-39.99
2016-10-07T02:18:13.555Z,-39.99
2016-10-07T02:19:13.578Z,-39.99
2016-10-07T02:20:13.595Z,-39.99
2016-10-07T02:21:13.613Z,-39.99
2016-10-07T02:22:13.669Z,-39.99
2016-10-07T02:23:13.637Z,-39.99
2016-10-07T02:24:13.675Z,-39.99
2016-10-07T02:25:13.672Z,-39.99
2016-10-07T02:26:13.700Z,-39.99
2016-10-07T02:27:13.699Z,-39.99
2016-10-07T02:28:13.751Z,-39.99
2016-10-07T02:29:13.741Z,-39.99
2016-10-07T02:30:13.755Z,-39.99
2016-10-07T02:31:13.785Z,-39.99
2016-10-07T02:32:13.795Z,-39.99
2016-10-07T02:33:13.812Z,-39.99
2016-10-07T02:34:13.841Z,-39.99
2016-10-07T02:35:13.846Z,-39.99
2016-10-07T02:36:13.868Z,-39.99
2016-10-07T02:37:13.865Z,-39.99
2016-10-07T02:38:13.897Z,-39.99
2016-10-07T02:39:13.923Z,-39.99
2016-10-07T02:40:13.927Z,-39.99
2016-10-07T02:41:13.944Z,-39.99
2016-10-07T02:42:13.962Z,-39.99
2016-10-07T02:43:13.978Z,-39.99
2016-10-07T02:44:13.995Z,-39.99
2016-10-07T02:45:14.012Z,-39.99
2016-10-07T02:46:14.020Z,-39.99
2016-10-07T02:47:14.037Z,-39.99
2016-10-07T02:48:14.052Z,-39.99
2016-10-07T02:49:14.064Z,-39.99
2016-10-07T02:50:14.093Z,-39.99
2016-10-07T02:51:14.125Z,-39.99
2016-10-07T02:52:14.123Z,-39.99
2016-10-07T02:53:14.135Z,-39.99
2016-10-07T02:54:14.164Z,-39.99
2016-10-07T02:55:14.170Z,-39.99
2016-10-07T02:56:14.183Z,-39.99
2016-10-07T02:57:14.203Z,-39.99
2016-10-07T02:58:14.234Z,-39.99
2016-10-07T02:59:14.251Z,-39.99
2016-10-07T03:00:14.259Z,-39.99
2016-10-07T03:01:14.270Z,-39.99
2016-10-07T03:02:14.286Z,-39.99
2016-10-07T03:03:14.306Z,-39.99
2016-10-07T03:04:14.322Z,-39.99
2016-10-07T03:05:14.344Z,-39.99
2016-10-07T03:06:14.347Z,-39.99
2016-10-07T03:07:14.379Z,-39.99
2016-10-07T03:08:14.377Z,-39.99
2016-10-07T03:09:14.405Z,-39.99
2016-10-07T03:10:14.425Z,-39.99
2016-10-07T03:11:14.437Z,-39.99
2016-10-07T03:12:14.482Z,-39.99
2016-10-07T03:13:14.479Z,-39.99
2016-10-07T03:14:14.493Z,-39.99
2016-10-07T03:15:14.492Z,-39.99
2016-10-07T03:16:14.524Z,-39.99
2016-10-07T03:17:14.544Z,-39.99
2016-10-07T03:18:14.554Z,-39.99
2016-10-07T03:19:14.575Z,-39.99
2016-10-07T03:20:14.591Z,-39.99
2016-10-07T03:21:14.605Z,-39.99
2016-10-07T03:22:14.620Z,-39.99
2016-10-07T03:23:14.636Z,-39.99
2016-10-07T03:24:14.663Z,-39.99
2016-10-07T03:25:14.663Z,-39.99
2016-10-07T03:26:14.689Z,-39.99
2016-10-07T03:27:14.707Z,-39.99
2016-10-07T03:28:15.063Z,-39.99
2016-10-07T03:29:14.737Z,-39.99
2016-10-07T03:30:14.749Z,-39.99
2016-10-07T03:31:14.774Z,-39.99
2016-10-07T03:32:14.785Z,-39.99
2016-10-07T03:33:14.796Z,-39.99
2016-10-07T03:34:14.824Z,-39.99
2016-10-07T03:35:14.822Z,-39.99
2016-10-07T03:36:14.856Z,-39.99
2016-10-07T03:37:14.866Z,-39.99
2016-10-07T03:38:14.892Z,-39.99
2016-10-07T03:39:14.893Z,-39.99
2016-10-07T03:40:14.922Z,-39.99
2016-10-07T03:41:14.944Z,-39.99
2016-10-07T03:42:14.954Z,-39.99
2016-10-07T03:43:14.975Z,-39.99
2016-10-07T03:44:14.980Z,-39.99
2016-10-07T03:45:14.998Z,-39.99
2016-10-07T03:46:15.009Z,-39.99
2016-10-07T03:47:15.033Z,-39.99
2016-10-07T03:48:15.055Z,-39.99
2016-10-07T03:49:15.065Z,-39.99
2016-10-07T03:50:15.081Z,-39.99
2016-10-07T03:51:15.088Z,-39.99
2016-10-07T03:52:15.118Z,-39.99
2016-10-07T03:53:15.114Z,-39.99
2016-10-07T03:54:15.154Z,-39.99
2016-10-07T03:55:15.161Z,-39.99
2016-10-07T03:56:15.185Z,-39.99
2016-10-07T03:57:15.188Z,-39.99
2016-10-07T03:58:15.224Z,-39.99
2016-10-07T03:59:15.217Z,-39.99
2016-10-07T04:01:44.920Z,-39.99
2016-10-07T04:02:15.605Z,-39.99
2016-10-07T04:03:15.288Z,-39.99
2016-10-07T04:04:15.296Z,-39.99
2016-10-07T04:05:15.311Z,-39.99
2016-10-07T04:06:15.330Z,-39.99
2016-10-07T04:07:15.349Z,-39.99
2016-10-07T04:08:15.357Z,-39.99
2016-10-07T04:09:15.387Z,-39.99
2016-10-07T04:10:15.401Z,-39.99
2016-10-07T04:11:15.421Z,-39.99
2016-10-07T04:12:15.448Z,-39.99
2016-10-07T04:13:15.451Z,-39.99
2016-10-07T04:14:15.464Z,-39.99
2016-10-07T04:15:15.485Z,-39.99
2016-10-07T04:16:15.500Z,-39.99
2016-10-07T04:17:15.515Z,-39.99
2016-10-07T04:18:15.535Z,-39.99
2016-10-07T04:19:15.533Z,-39.99
2016-10-07T04:20:15.567Z,-39.99
2016-10-07T04:21:15.575Z,-39.99
2016-10-07T04:22:15.576Z,-39.99
2016-10-07T04:23:15.608Z,-39.99
2016-10-07T04:24:15.634Z,-39.99
2016-10-07T04:25:15.651Z,-39.99
2016-10-07T04:26:15.653Z,-39.99
2016-10-07T04:27:15.684Z,-39.99
2016-10-07T04:28:15.689Z,-39.99
2016-10-07T04:29:15.715Z,-39.99
2016-10-07T04:30:15.736Z,-39.99
2016-10-07T04:31:15.753Z,-39.99
2016-10-07T04:32:15.766Z,-39.99
2016-10-07T04:33:15.781Z,-39.99
2016-10-07T04:34:15.785Z,-39.99
2016-10-07T04:35:15.818Z,-39.99
2016-10-07T04:36:15.814Z,-39.99
2016-10-07T04:37:15.849Z,-39.99
2016-10-07T04:38:15.865Z,-39.99
2016-10-07T04:39:15.883Z,-39.99
2016-10-07T04:40:15.895Z,-39.99
2016-10-07T04:41:15.896Z,-39.99
2016-10-07T04:42:15.927Z,-39.99
2016-10-07T04:43:15.941Z,-39.99
2016-10-07T04:44:15.958Z,-39.99
2016-10-07T04:45:15.981Z,-39.99
2016-10-07T04:46:15.990Z,-39.99
2016-10-07T04:47:15.998Z,-39.99
2016-10-07T04:48:16.034Z,-39.99
2016-10-07T04:49:16.040Z,-39.99
2016-10-07T04:50:16.064Z,-39.99
2016-10-07T04:51:16.069Z,-39.99
2016-10-07T04:52:16.091Z,-39.99
2016-10-07T04:53:16.096Z,-39.99
2016-10-07T04:54:16.126Z,-39.99
2016-10-07T04:55:16.142Z,-39.99
2016-10-07T04:56:16.162Z,-39.99
2016-10-07T04:57:16.162Z,-39.99
2016-10-07T04:58:16.183Z,-39.99
2016-10-07T04:59:16.201Z,-39.99
2016-10-07T05:00:16.209Z,-39.99
2016-10-07T05:01:16.231Z,-39.99
2016-10-07T05:02:16.249Z,-39.99
2016-10-07T05:03:16.273Z,-39.99
2016-10-07T05:04:16.279Z,-39.99
2016-10-07T05:05:16.307Z,-39.99
2016-10-07T05:06:16.328Z,10.82
2016-10-07T05:07:16.349Z,10.84
2016-10-07T05:08:16.361Z,10.92
2016-10-07T05:09:16.391Z,10.9
2016-10-07T05:10:16.387Z,10.82
2016-10-07T05:11:16.384Z,10.81
2016-10-07T05:12:16.421Z,10.81
2016-10-07T05:13:16.452Z,10.81
2016-10-07T05:14:16.457Z,10.84
2016-10-07T05:15:16.463Z,10.87
2016-10-07T05:16:16.495Z,10.82
2016-10-07T05:17:16.504Z,10.76
2016-10-07T05:18:16.521Z,10.82
2016-10-07T05:19:16.544Z,10.78
2016-10-07T05:20:16.558Z,10.78
2016-10-07T05:21:16.571Z,10.87
2016-10-07T05:22:16.581Z,10.89
2016-10-07T05:23:16.592Z,10.94
2016-10-07T05:24:16.627Z,10.89
2016-10-07T05:25:16.628Z,10.87
2016-10-07T05:26:16.650Z,10.87
2016-10-07T05:27:16.665Z,10.79
2016-10-07T05:28:16.696Z,10.86
2016-10-07T05:29:16.707Z,10.86
2016-10-07T05:30:16.719Z,10.87
2016-10-07T05:31:16.733Z,10.82
2016-10-07T05:32:16.735Z,10.75
2016-10-07T05:33:16.753Z,10.89
2016-10-07T05:34:16.786Z,10.89
2016-10-07T05:35:16.799Z,10.9
2016-10-07T05:36:16.834Z,10.89
2016-10-07T05:37:16.840Z,10.75
2016-10-07T05:38:16.844Z,10.78
2016-10-07T05:39:16.855Z,10.86
2016-10-07T05:40:16.883Z,10.82
2016-10-07T05:41:16.891Z,10.82
2016-10-07T05:42:16.923Z,10.82
2016-10-07T05:43:16.933Z,10.79
2016-10-07T05:44:16.953Z,10.9
2016-10-07T05:45:16.966Z,10.84
2016-10-07T05:46:16.976Z,10.81
2016-10-07T05:47:16.998Z,10.93
2016-10-07T05:48:17.022Z,10.9
2016-10-07T05:49:17.043Z,10.94
2016-10-07T05:50:17.044Z,10.93
2016-10-07T05:51:17.066Z,10.96
2016-10-07T05:52:17.101Z,10.92
2016-10-07T05:53:17.094Z,11.02
2016-10-07T05:54:17.112Z,10.89
2016-10-07T05:55:17.139Z,10.97
2016-10-07T05:56:17.145Z,10.92
2016-10-07T05:57:17.179Z,11.02
2016-10-07T05:58:17.191Z,10.99
2016-10-07T05:59:17.197Z,11.02
2016-10-07T06:00:17.220Z,11.02
2016-10-07T06:01:17.228Z,11.02
2016-10-07T06:02:17.239Z,10.93
2016-10-07T06:03:17.259Z,11.02
2016-10-07T06:04:17.287Z,11
2016-10-07T06:05:17.301Z,11
2016-10-07T06:06:17.302Z,10.96
2016-10-07T06:07:17.331Z,10.99
2016-10-07T06:08:17.352Z,11
2016-10-07T06:09:17.367Z,11.05
2016-10-07T06:10:17.386Z,10.99
2016-10-07T06:11:17.397Z,10.94
2016-10-07T06:12:17.409Z,10.97
2016-10-07T06:13:17.427Z,11.05
2016-10-07T06:14:17.449Z,11.05
2016-10-07T06:15:17.453Z,10.96
2016-10-07T06:16:17.479Z,11.02
2016-10-07T06:17:17.496Z,11
2016-10-07T06:18:17.515Z,11
2016-10-07T06:19:17.533Z,11.04
2016-10-07T06:20:17.548Z,10.99
2016-10-07T06:21:17.571Z,10.96
2016-10-07T06:22:17.580Z,11.02
2016-10-07T06:23:17.593Z,10.94
2016-10-07T06:24:17.619Z,10.96
2016-10-07T06:25:17.631Z,10.97
2016-10-07T06:26:17.651Z,10.94
2016-10-07T06:27:17.673Z,10.99
2016-10-07T06:28:17.682Z,10.99
2016-10-07T06:29:17.698Z,10.99
2016-10-07T06:30:17.700Z,10.94
2016-10-07T06:31:17.740Z,10.97
2016-10-07T06:32:17.742Z,10.92
2016-10-07T06:33:17.767Z,10.96
2016-10-07T06:34:17.782Z,10.96
2016-10-07T06:35:17.793Z,10.9
2016-10-07T06:36:17.814Z,10.93
2016-10-07T06:37:17.825Z,10.94
2016-10-07T06:38:17.850Z,11.04
2016-10-07T06:39:17.864Z,11
2016-10-07T06:40:17.874Z,10.93
2016-10-07T06:41:17.895Z,11
2016-10-07T06:42:17.917Z,10.99
2016-10-07T06:43:17.927Z,10.97
2016-10-07T06:44:17.929Z,10.93
2016-10-07T06:45:17.962Z,10.99
2016-10-07T06:46:17.975Z,10.94
2016-10-07T06:47:17.978Z,10.96
2016-10-07T06:48:18.015Z,10.94
2016-10-07T06:49:18.030Z,10.96
2016-10-07T06:50:18.039Z,10.99
2016-10-07T06:51:18.051Z,11.04
2016-10-07T06:52:18.074Z,10.94
2016-10-07T06:53:18.102Z,10.96
2016-10-07T06:54:18.107Z,11.05
2016-10-07T06:55:18.122Z,10.96
2016-10-07T06:56:18.148Z,11.02
2016-10-07T06:57:18.157Z,11
2016-10-07T06:58:18.499Z,11
2016-10-07T06:59:18.183Z,11.05
2016-10-07T07:00:18.198Z,11.04
2016-10-07T07:01:18.232Z,11.12
2016-10-07T07:02:18.256Z,11.11
2016-10-07T07:03:18.253Z,11.1
2016-10-07T07:04:18.264Z,11.19
2016-10-07T07:05:18.296Z,11.25
2016-10-07T07:06:18.295Z,11.22
2016-10-07T07:07:18.314Z,11.26
2016-10-07T07:08:18.337Z,11.36
2016-10-07T07:09:18.358Z,11.32
2016-10-07T07:10:18.364Z,11.3
2016-10-07T07:11:18.397Z,11.27
2016-10-07T07:12:18.408Z,11.41
2016-10-07T07:13:18.422Z,11.37
2016-10-07T07:14:18.447Z,11.43
2016-10-07T07:15:18.444Z,11.47
2016-10-07T07:16:18.474Z,11.37
2016-10-07T07:17:18.492Z,11.41
2016-10-07T07:18:18.506Z,11.35
2016-10-07T07:19:18.524Z,11.35
2016-10-07T07:20:18.539Z,11.37
2016-10-07T07:21:18.554Z,11.43
2016-10-07T07:22:18.566Z,11.3
2016-10-07T07:23:18.600Z,11.32
2016-10-07T07:24:18.606Z,11.33
2016-10-07T07:25:18.624Z,11.27
2016-10-07T07:26:18.645Z,11.41
2016-10-07T07:27:18.645Z,11.36
2016-10-07T07:28:18.677Z,11.41
2016-10-07T07:29:18.696Z,11.45
2016-10-07T07:30:18.711Z,11.47
2016-10-07T07:31:18.738Z,11.36
2016-10-07T07:32:18.756Z,11.36
2016-10-07T07:33:18.750Z,11.35
2016-10-07T07:34:18.773Z,11.33
2016-10-07T07:35:18.805Z,11.44
2016-10-07T07:36:18.819Z,11.37
2016-10-07T07:37:18.819Z,11.37
2016-10-07T07:38:18.835Z,11.29
2016-10-07T07:39:18.865Z,11.35
2016-10-07T07:40:18.887Z,11.43
2016-10-07T07:41:18.899Z,11.43
2016-10-07T07:42:18.913Z,11.47
2016-10-07T07:43:18.935Z,11.44
2016-10-07T07:44:18.955Z,11.52
2016-10-07T07:45:18.972Z,11.57
2016-10-07T07:46:18.992Z,11.57
2016-10-07T07:47:18.991Z,11.55
2016-10-07T07:48:19.000Z,11.57
2016-10-07T07:49:19.026Z,11.6
2016-10-07T07:50:19.059Z,11.51
2016-10-07T07:51:19.074Z,11.5
2016-10-07T07:52:19.081Z,11.51
2016-10-07T07:53:19.099Z,11.45
2016-10-07T07:54:19.112Z,11.5
2016-10-07T07:55:19.133Z,11.54
2016-10-07T07:56:19.156Z,11.51
2016-10-07T07:57:19.171Z,11.52
2016-10-07T07:58:19.178Z,11.51
2016-10-07T07:59:19.204Z,11.55
2016-10-07T08:00:19.207Z,11.54
2016-10-07T08:01:19.238Z,11.54
2016-10-07T08:02:19.246Z,11.57
2016-10-07T08:03:19.269Z,11.55
2016-10-07T08:04:19.290Z,11.57
2016-10-07T08:05:19.298Z,11.68
2016-10-07T08:06:19.302Z,11.73
2016-10-07T08:07:19.335Z,11.69
2016-10-07T08:08:19.351Z,11.66
2016-10-07T08:09:19.378Z,11.75
2016-10-07T08:10:19.390Z,11.8
2016-10-07T08:11:19.395Z,11.88
2016-10-07T08:12:19.412Z,11.84
2016-10-07T08:13:19.429Z,11.97
2016-10-07T08:14:19.473Z,11.99
2016-10-07T08:15:19.492Z,11.99
2016-10-07T08:16:19.510Z,12.1
2016-10-07T08:17:19.559Z,12.15
2016-10-07T08:18:19.539Z,12.18
2016-10-07T08:19:19.560Z,12.28
2016-10-07T08:20:19.560Z,12.35
2016-10-07T08:21:19.620Z,12.32
2016-10-07T08:22:19.601Z,12.43
2016-10-07T08:23:19.643Z,12.4
2016-10-07T08:24:19.632Z,12.53
2016-10-07T08:25:19.647Z,12.57
2016-10-07T08:26:19.665Z,12.58
2016-10-07T08:27:19.690Z,12.61
2016-10-07T08:28:19.698Z,12.68
2016-10-07T08:29:19.767Z,12.83
2016-10-07T08:30:19.737Z,12.87
2016-10-07T08:31:19.791Z,12.91
2016-10-07T08:32:19.824Z,12.87
2016-10-07T08:33:19.796Z,12.9
2016-10-07T08:34:19.852Z,12.91
2016-10-07T08:35:19.836Z,12.95
2016-10-07T08:36:19.853Z,13
2016-10-07T08:37:19.859Z,13
2016-10-07T08:38:19.888Z,13.15
2016-10-07T08:39:19.905Z,13.18
2016-10-07T08:40:19.905Z,13.2
2016-10-07T08:41:19.987Z,13.27
2016-10-07T08:42:19.987Z,13.2
2016-10-07T08:43:20.021Z,13.13
2016-10-07T08:44:20.043Z,13.09
2016-10-07T08:45:20.006Z,13.12
2016-10-07T08:46:20.019Z,13.13
2016-10-07T08:47:20.048Z,13.19
2016-10-07T08:48:20.055Z,13.18
2016-10-07T08:49:20.070Z,13.3
2016-10-07T08:50:20.089Z,13.28
2016-10-07T08:51:20.117Z,13.22
2016-10-07T08:52:20.134Z,13.28
2016-10-07T08:53:20.137Z,13.3
2016-10-07T08:54:20.158Z,13.25
2016-10-07T08:55:20.182Z,13.33
2016-10-07T08:56:20.191Z,13.33
2016-10-07T08:57:20.228Z,13.33
2016-10-07T08:58:20.269Z,13.25
2016-10-07T08:59:20.262Z,13.28
2016-10-07T09:00:20.275Z,13.3
2016-10-07T09:01:20.290Z,13.33
2016-10-07T09:02:20.309Z,13.42
2016-10-07T09:03:20.323Z,13.35
2016-10-07T09:04:20.344Z,13.38
2016-10-07T09:05:20.375Z,13.42
2016-10-07T09:06:20.384Z,13.47
2016-10-07T09:07:20.406Z,13.54
2016-10-07T09:08:20.426Z,13.67
2016-10-07T09:09:20.445Z,13.71
2016-10-07T09:10:20.466Z,13.6
2016-10-07T09:11:20.483Z,13.7
2016-10-07T09:12:20.506Z,13.71
2016-10-07T09:13:20.512Z,13.87
2016-10-07T09:14:20.533Z,13.99
2016-10-07T09:15:20.538Z,14.11
2016-10-07T09:16:20.571Z,14.18
2016-10-07T09:17:20.582Z,14.22
2016-10-07T09:18:20.607Z,14.22
2016-10-07T09:19:20.632Z,14.18
2016-10-07T09:20:20.642Z,14.2
2016-10-07T09:21:20.661Z,14.17
2016-10-07T09:22:20.673Z,14.17
2016-10-07T09:23:20.706Z,14
2016-10-07T09:24:20.717Z,13.95
2016-10-07T09:25:20.743Z,13.87
2016-10-07T09:26:20.757Z,13.77
2016-10-07T09:27:20.774Z,13.71
2016-10-07T09:28:20.789Z,13.77
2016-10-07T09:29:20.810Z,13.74
2016-10-07T09:30:20.824Z,13.83
2016-10-07T09:31:20.839Z,13.9
2016-10-07T09:32:20.873Z,14
2016-10-07T09:33:20.876Z,13.99
2016-10-07T09:34:20.903Z,14.04
2016-10-07T09:35:20.921Z,13.99
2016-10-07T09:36:20.943Z,13.97
2016-10-07T09:37:20.951Z,13.87
2016-10-07T09:38:20.972Z,13.74
2016-10-07T09:39:20.995Z,13.7
2016-10-07T09:40:21.004Z,13.72
2016-10-07T09:41:21.020Z,13.7
2016-10-07T09:42:21.049Z,13.71
2016-10-07T09:43:21.071Z,13.78
2016-10-07T09:44:21.106Z,13.83
2016-10-07T09:45:21.107Z,13.83
2016-10-07T09:46:21.123Z,13.9
2016-10-07T09:47:21.139Z,13.99
2016-10-07T09:48:21.155Z,13.9
2016-10-07T09:49:21.182Z,14.04
2016-10-07T09:50:21.192Z,14.08
2016-10-07T09:51:21.228Z,14
2016-10-07T09:52:21.226Z,14
2016-10-07T09:53:21.256Z,13.97
2016-10-07T09:54:21.273Z,13.89
2016-10-07T09:55:21.296Z,13.89
2016-10-07T09:56:21.317Z,14.03
2016-10-07T09:57:21.335Z,14.04
2016-10-07T09:58:21.338Z,14.04
2016-10-07T09:59:21.376Z,14.23
2016-10-07T10:00:21.382Z,14.18
2016-10-07T10:01:21.407Z,14.18
2016-10-07T10:02:21.428Z,14.15
2016-10-07T10:03:21.434Z,14.26
2016-10-07T10:04:21.458Z,14.22
2016-10-07T10:05:21.477Z,14.29
2016-10-07T10:06:21.491Z,14.44
2016-10-07T10:07:21.510Z,14.47
2016-10-07T10:08:21.538Z,14.44
2016-10-07T10:09:21.560Z,14.54
2016-10-07T10:10:21.564Z,14.48
2016-10-07T10:11:21.592Z,14.43
2016-10-07T10:12:21.606Z,14.45
2016-10-07T10:13:21.623Z,14.53
2016-10-07T10:14:21.643Z,14.47
2016-10-07T10:15:21.668Z,14.26
2016-10-07T10:16:21.685Z,14.15
2016-10-07T10:17:21.709Z,14.17
2016-10-07T10:18:21.715Z,14.05
2016-10-07T10:19:21.738Z,13.9
2016-10-07T10:20:21.758Z,13.96
2016-10-07T10:21:21.766Z,14.04
2016-10-07T10:22:21.788Z,14.07
2016-10-07T10:23:21.810Z,14.14
2016-10-07T10:24:21.837Z,14.25
2016-10-07T10:25:21.857Z,14.28
2016-10-07T10:26:21.866Z,14.37
2016-10-07T10:27:21.894Z,14.36
2016-10-07T10:28:21.901Z,14.6
2016-10-07T10:29:21.940Z,14.77
2016-10-07T10:30:21.948Z,15
2016-10-07T10:31:21.966Z,15.02
2016-10-07T10:32:21.990Z,15
2016-10-07T10:33:22.011Z,14.88
2016-10-07T10:34:22.031Z,14.96
2016-10-07T10:35:22.044Z,14.92
2016-10-07T10:36:22.049Z,14.86
2016-10-07T10:37:22.083Z,14.79
2016-10-07T10:38:22.096Z,14.82
2016-10-07T10:39:22.109Z,14.54
2016-10-07T10:40:22.143Z,14.6
2016-10-07T10:41:22.150Z,14.59
2016-10-07T10:42:22.178Z,14.62
2016-10-07T10:43:22.183Z,14.53
2016-10-07T10:44:22.207Z,14.48
2016-10-07T10:45:22.240Z,14.44
2016-10-07T10:46:22.253Z,14.5
2016-10-07T10:47:22.275Z,14.48
2016-10-07T10:48:22.279Z,14.28
2016-10-07T10:49:22.303Z,14.32
2016-10-07T10:50:22.339Z,14.26
2016-10-07T10:51:22.343Z,14.33
2016-10-07T10:52:22.347Z,14.41
2016-10-07T10:53:22.386Z,14.54
2016-10-07T10:54:22.399Z,14.53
2016-10-07T10:55:22.415Z,14.6
2016-10-07T10:56:22.421Z,14.69
2016-10-07T10:57:22.468Z,14.78
2016-10-07T10:58:22.477Z,14.88
2016-10-07T10:59:22.499Z,14.86
2016-10-07T11:00:22.517Z,14.96
2016-10-07T11:01:22.544Z,15.03
2016-10-07T11:02:22.560Z,15.1
2016-10-07T11:03:22.569Z,15.21
2016-10-07T11:04:22.581Z,15.31
2016-10-07T11:05:22.619Z,15.35
2016-10-07T11:06:22.632Z,15.31
2016-10-07T11:07:22.644Z,15.35
2016-10-07T11:08:22.666Z,15.37
2016-10-07T11:09:22.682Z,15.24
2016-10-07T11:10:22.706Z,15.25
2016-10-07T11:11:22.727Z,15.11
2016-10-07T11:12:22.733Z,15.02
2016-10-07T11:13:22.754Z,14.92
2016-10-07T11:14:22.790Z,14.85
2016-10-07T11:15:22.809Z,14.97
2016-10-07T11:16:22.809Z,14.97
2016-10-07T11:17:22.828Z,15.15
2016-10-07T11:18:22.859Z,15.19
2016-10-07T11:19:22.875Z,15.17
2016-10-07T11:20:22.897Z,15.15
2016-10-07T11:21:22.917Z,15.17
2016-10-07T11:22:22.933Z,15.15
2016-10-07T11:23:22.951Z,15.14
2016-10-07T11:24:22.969Z,15.19
2016-10-07T11:25:23.000Z,15.21
2016-10-07T11:26:23.006Z,15.18
2016-10-07T11:27:23.023Z,15.29
2016-10-07T11:28:23.046Z,15.35
2016-10-07T11:29:23.072Z,15.31
2016-10-07T11:30:23.081Z,15.37
2016-10-07T11:31:23.109Z,15.37
2016-10-07T11:32:23.127Z,15.46
2016-10-07T11:33:23.147Z,15.43
2016-10-07T11:34:23.166Z,15.52
2016-10-07T11:35:23.183Z,15.52
2016-10-07T11:36:23.200Z,15.58
2016-10-07T11:37:23.235Z,15.55
2016-10-07T11:38:23.232Z,15.65
2016-10-07T11:39:23.273Z,15.79
2016-10-07T11:40:23.282Z,15.76
2016-10-07T11:41:23.306Z,15.98
2016-10-07T11:42:23.323Z,16.05
2016-10-07T11:43:23.333Z,16.13
2016-10-07T11:44:23.362Z,16.21
2016-10-07T11:45:23.382Z,16.26
2016-10-07T11:46:23.406Z,16.28
2016-10-07T11:47:23.432Z,16.38
2016-10-07T11:48:23.440Z,16.51
2016-10-07T11:49:23.457Z,16.42
2016-10-07T11:50:23.486Z,16.39
2016-10-07T11:51:23.490Z,16.39
2016-10-07T11:52:23.517Z,16.31
2016-10-07T11:53:23.546Z,16.28
2016-10-07T11:54:23.574Z,16.28
2016-10-07T11:55:23.583Z,16.21
2016-10-07T11:56:23.597Z,16.28
2016-10-07T11:57:23.621Z,16.24
2016-10-07T11:58:23.650Z,16.31
2016-10-07T11:59:23.672Z,16.31
2016-10-07T12:00:23.676Z,16.2
2016-10-07T12:01:23.705Z,16.31
2016-10-07T12:02:23.710Z,16.35
2016-10-07T12:03:23.731Z,16.35
2016-10-07T12:04:23.780Z,16.38
2016-10-07T12:05:23.781Z,16.38
2016-10-07T12:06:23.798Z,16.29
2016-10-07T12:07:23.813Z,16.23
2016-10-07T12:08:23.852Z,16.05
2016-10-07T12:09:23.872Z,16.02
2016-10-07T12:10:23.885Z,15.91
2016-10-07T12:11:23.951Z,15.7
2016-10-07T12:12:23.986Z,15.57
2016-10-07T12:13:23.972Z,15.47
2016-10-07T12:14:23.951Z,15.39
2016-10-07T12:15:23.982Z,15.39
2016-10-07T12:16:24.011Z,15.19
2016-10-07T12:17:24.027Z,14.99
2016-10-07T12:18:24.039Z,14.89
2016-10-07T12:19:24.054Z,14.81
2016-10-07T12:20:24.094Z,14.79
2016-10-07T12:21:24.111Z,14.63
2016-10-07T12:22:24.119Z,14.47
2016-10-07T12:23:24.136Z,14.4
2016-10-07T12:24:24.154Z,14.29
2016-10-07T12:25:24.174Z,14.4
2016-10-07T12:26:24.190Z,14.28
2016-10-07T12:27:24.216Z,14.48
2016-10-07T12:28:24.268Z,14.47
2016-10-07T12:29:24.262Z,14.62
2016-10-07T12:30:24.267Z,14.79
2016-10-07T12:31:24.304Z,14.89
2016-10-07T12:32:24.306Z,15.03
2016-10-07T12:33:24.371Z,15.15
2016-10-07T12:34:24.361Z,15.35
2016-10-07T12:35:24.379Z,15.51
2016-10-07T12:36:24.395Z,15.62
2016-10-07T12:37:24.394Z,15.59
2016-10-07T12:38:24.431Z,15.76
2016-10-07T12:39:24.436Z,15.77
2016-10-07T12:40:24.458Z,15.79
2016-10-07T12:41:24.491Z,15.94
2016-10-07T12:42:24.510Z,16.05
2016-10-07T12:43:24.525Z,16.13
2016-10-07T12:44:24.535Z,16.26
2016-10-07T12:45:24.569Z,16.31
2016-10-07T12:46:24.592Z,16.43